Time;durP1;ratioP1;P1;durP2;ratioP2;P2;SDS_P1;SDS_P2;PMS_P1;PMS_P2;Temp;Humidity;BMP_temperature;BMP_pressure;BME280_temperature;BME280_humidity;BME280_pressure;Samples;Min_cycle;Max_cycle;Signal;HPM_P1;HPM_P2
2023/07/17 00:00:17;;;;;;;6.10;2.22;;;;;;;;;;5014577;28;20113;-68
2023/07/17 00:02:43;;;;;;;10.77;2.92;;;;;;;;;;5021552;28;20018;-68
2023/07/17 00:05:12;;;;;;;11.10;2.90;;;;;;;;;;5034086;28;20057;-68
2023/07/17 00:07:39;;;;;;;11.05;2.60;;;;;;;;;;5032495;28;20433;-68
2023/07/17 00:10:05;;;;;;;12.18;3.60;;;;;;;;;;5034589;28;20017;-68
2023/07/17 00:12:30;;;;;;;15.38;2.95;;;;;;;;;;5033901;28;20486;-68
2023/07/17 00:14:56;;;;;;;8.68;2.72;;;;;;;;;;5033979;28;20096;-68
2023/07/17 00:17:21;;;;;;;9.32;3.28;;;;;;;;;;5033918;28;20478;-68
2023/07/17 00:19:56;;;;;;;8.07;2.50;;;;;;;;;;5032861;28;20456;-68
2023/07/17 00:22:22;;;;;;;5.65;2.42;;;;;;;;;;5033759;28;20538;-68
2023/07/17 00:24:49;;;;;;;10.00;2.67;;;;;;;;;;5033612;28;20052;-68
2023/07/17 00:27:14;;;;;;;10.85;2.95;;;;;;;;;;5033489;28;20036;-68
2023/07/17 00:29:40;;;;;;;5.68;2.80;;;;;;;;;;5032996;28;20025;-68
2023/07/17 00:32:06;;;;;;;3.85;2.30;;;;;;;;;;5033285;28;20087;-68
2023/07/17 00:34:31;;;;;;;8.57;2.67;;;;;;;;;;5033536;28;20017;-68
2023/07/17 00:36:57;;;;;;;10.15;2.90;;;;;;;;;;5033539;28;20053;-68
2023/07/17 00:39:23;;;;;;;9.13;2.28;;;;;;;;;;5033682;28;20029;-68
2023/07/17 00:41:50;;;;;;;9.25;2.92;;;;;;;;;;5033456;28;20025;-68
2023/07/17 00:44:15;;;;;;;11.82;3.70;;;;;;;;;;5033068;28;20026;-68
2023/07/17 00:46:40;;;;;;;7.70;2.55;;;;;;;;;;5032982;28;20041;-68
2023/07/17 00:49:06;;;;;;;6.53;2.17;;;;;;;;;;5019730;28;20029;-68
2023/07/17 00:51:32;;;;;;;7.82;2.50;;;;;;;;;;5012046;28;20018;-68
2023/07/17 00:53:58;;;;;;;8.35;2.85;;;;;;;;;;5012956;28;20032;-68
2023/07/17 00:56:27;;;;;;;11.18;2.67;;;;;;;;;;5012017;28;20032;-68
2023/07/17 00:58:53;;;;;;;7.35;2.40;;;;;;;;;;5013585;28;20028;-68
2023/07/17 01:01:18;;;;;;;8.35;1.98;;;;;;;;;;5021760;28;20393;-68
2023/07/17 01:03:44;;;;;;;7.20;3.20;;;;;;;;;;5033259;28;20033;-68
2023/07/17 01:06:09;;;;;;;12.98;2.22;;;;;;;;;;5031385;28;20029;-68
2023/07/17 01:08:34;;;;;;;8.98;2.45;;;;;;;;;;5033318;28;20048;-68
2023/07/17 01:10:59;;;;;;;8.55;2.30;;;;;;;;;;5030145;28;20414;-68
2023/07/17 01:13:25;;;;;;;10.20;2.63;;;;;;;;;;5012806;28;20117;-68
2023/07/17 01:15:50;;;;;;;12.88;2.30;;;;;;;;;;5012833;28;20022;-68
2023/07/17 01:18:15;;;;;;;4.53;2.20;;;;;;;;;;5001370;28;20439;-68
2023/07/17 01:20:41;;;;;;;8.55;3.08;;;;;;;;;;4993792;28;20033;-68
2023/07/17 01:23:06;;;;;;;6.43;2.17;;;;;;;;;;4992136;28;20101;-68
2023/07/17 01:25:32;;;;;;;8.52;2.70;;;;;;;;;;5006503;28;20502;-68
2023/07/17 01:27:58;;;;;;;9.13;2.47;;;;;;;;;;5013094;28;20029;-68
2023/07/17 01:30:23;;;;;;;15.43;2.92;;;;;;;;;;5012174;28;20500;-68
2023/07/17 01:32:48;;;;;;;8.15;2.55;;;;;;;;;;5013220;28;20487;-68
2023/07/17 01:35:14;;;;;;;7.80;2.35;;;;;;;;;;5019147;28;20021;-68
2023/07/17 01:37:39;;;;;;;7.85;3.10;;;;;;;;;;5032676;28;20060;-68
2023/07/17 01:40:07;;;;;;;9.23;2.67;;;;;;;;;;5034081;28;20022;-68
2023/07/17 01:42:32;;;;;;;7.32;2.85;;;;;;;;;;5035805;28;20028;-68
2023/07/17 01:44:58;;;;;;;11.10;3.55;;;;;;;;;;5034855;28;20022;-68
2023/07/17 01:47:23;;;;;;;5.97;2.42;;;;;;;;;;5037477;28;20029;-68
2023/07/17 01:49:48;;;;;;;8.43;2.90;;;;;;;;;;5036533;28;20026;-68
2023/07/17 01:52:14;;;;;;;9.95;2.30;;;;;;;;;;5007168;28;20030;-68
2023/07/17 01:54:39;;;;;;;13.23;4.03;;;;;;;;;;4996932;28;20108;-68
2023/07/17 01:57:04;;;;;;;5.85;2.58;;;;;;;;;;5004248;28;20023;-68
2023/07/17 01:59:30;;;;;;;4.63;2.22;;;;;;;;;;4997326;28;20022;-68
2023/07/17 02:01:55;;;;;;;7.43;2.53;;;;;;;;;;5028706;28;20017;-68
2023/07/17 02:04:20;;;;;;;6.38;2.53;;;;;;;;;;5034889;28;20033;-68
2023/07/17 02:06:46;;;;;;;8.70;2.20;;;;;;;;;;5036467;28;20025;-68
2023/07/17 02:09:11;;;;;;;9.57;2.75;;;;;;;;;;5036458;28;20017;-68
2023/07/17 02:11:36;;;;;;;7.03;3.20;;;;;;;;;;5035878;28;20506;-68
2023/07/17 02:14:02;;;;;;;5.93;3.25;;;;;;;;;;5036270;28;20067;-68
2023/07/17 02:16:27;;;;;;;8.07;3.47;;;;;;;;;;5035905;28;20108;-68
2023/07/17 02:18:53;;;;;;;7.32;2.00;;;;;;;;;;5036750;28;20029;-68
2023/07/17 02:21:18;;;;;;;5.55;2.50;;;;;;;;;;5036292;28;20021;-68
2023/07/17 02:23:43;;;;;;;8.68;2.45;;;;;;;;;;5034793;28;20022;-68
2023/07/17 02:26:10;;;;;;;9.15;2.30;;;;;;;;;;5035410;28;20394;-68
2023/07/17 02:28:36;;;;;;;7.10;2.67;;;;;;;;;;5036136;28;20029;-68
2023/07/17 02:31:01;;;;;;;9.32;2.90;;;;;;;;;;5034663;28;20021;-68
2023/07/17 02:33:26;;;;;;;8.15;2.60;;;;;;;;;;5036361;28;20026;-68
2023/07/17 02:35:52;;;;;;;9.10;2.20;;;;;;;;;;5035223;28;20029;-68
2023/07/17 02:38:17;;;;;;;6.03;2.63;;;;;;;;;;5007679;28;20081;-68
2023/07/17 02:40:42;;;;;;;7.43;2.55;;;;;;;;;;4996376;28;20054;-68
2023/07/17 02:43:09;;;;;;;4.95;2.45;;;;;;;;;;4998519;28;20030;-68
2023/07/17 02:45:35;;;;;;;7.35;2.78;;;;;;;;;;4995909;28;20058;-68
2023/07/17 02:48:01;;;;;;;14.30;2.55;;;;;;;;;;4999793;28;20030;-68
2023/07/17 02:50:26;;;;;;;7.28;2.58;;;;;;;;;;5015991;28;20085;-68
2023/07/17 02:52:51;;;;;;;8.05;3.47;;;;;;;;;;5014878;28;20070;-68
2023/07/17 02:55:17;;;;;;;9.88;2.83;;;;;;;;;;5033284;28;20025;-68
2023/07/17 02:57:42;;;;;;;6.22;3.05;;;;;;;;;;5035778;28;20032;-68
2023/07/17 03:00:08;;;;;;;9.27;2.70;;;;;;;;;;5035673;28;20025;-68
2023/07/17 03:02:35;;;;;;;10.30;2.63;;;;;;;;;;5017893;28;20437;-68
2023/07/17 03:05:04;;;;;;;9.70;2.67;;;;;;;;;;5035225;28;20394;-68
2023/07/17 03:07:31;;;;;;;8.57;2.30;;;;;;;;;;5034581;28;20071;-68
2023/07/17 03:09:56;;;;;;;6.70;2.40;;;;;;;;;;5035416;28;20025;-68
2023/07/17 03:12:21;;;;;;;8.93;2.75;;;;;;;;;;5035338;28;20121;-68
2023/07/17 03:14:47;;;;;;;8.65;2.85;;;;;;;;;;5035064;28;20021;-68
2023/07/17 03:17:12;;;;;;;8.98;2.45;;;;;;;;;;5035288;28;20028;-68
2023/07/17 03:19:38;;;;;;;9.02;2.85;;;;;;;;;;5033643;28;20429;-68
2023/07/17 03:22:03;;;;;;;8.98;3.33;;;;;;;;;;5034812;28;20040;-68
2023/07/17 03:24:28;;;;;;;11.82;3.05;;;;;;;;;;5035057;28;20037;-68
2023/07/17 03:26:54;;;;;;;8.75;2.58;;;;;;;;;;5034882;28;20067;-68
2023/07/17 03:29:19;;;;;;;9.18;2.60;;;;;;;;;;5035079;28;20073;-68
2023/07/17 03:31:44;;;;;;;5.97;2.47;;;;;;;;;;5026855;28;20057;-68
2023/07/17 03:34:10;;;;;;;8.18;3.60;;;;;;;;;;4995078;28;20072;-68
2023/07/17 03:36:35;;;;;;;7.85;2.55;;;;;;;;;;4995219;28;20037;-68
2023/07/17 03:39:00;;;;;;;5.32;3.03;;;;;;;;;;5009764;28;20022;-68
2023/07/17 03:41:26;;;;;;;6.75;2.35;;;;;;;;;;5014945;28;20025;-68
2023/07/17 03:43:52;;;;;;;12.02;3.78;;;;;;;;;;5014534;28;20022;-68
2023/07/17 03:46:17;;;;;;;9.18;2.33;;;;;;;;;;5006497;28;20026;-68
2023/07/17 03:48:42;;;;;;;16.77;3.92;;;;;;;;;;4995391;28;20029;-68
2023/07/17 03:51:08;;;;;;;10.10;3.22;;;;;;;;;;5001040;28;20025;-68
2023/07/17 03:53:33;;;;;;;15.50;3.17;;;;;;;;;;5034946;28;20099;-68
2023/07/17 03:55:58;;;;;;;8.00;2.47;;;;;;;;;;5033676;28;20029;-68
2023/07/17 03:58:24;;;;;;;9.07;3.13;;;;;;;;;;5034549;28;20017;-68
2023/07/17 04:00:49;;;;;;;10.30;3.00;;;;;;;;;;5034201;28;20021;-68
2023/07/17 04:03:15;;;;;;;7.10;2.90;;;;;;;;;;5033041;28;20060;-68
2023/07/17 04:05:40;;;;;;;7.18;3.15;;;;;;;;;;5034377;28;20024;-68
2023/07/17 04:08:05;;;;;;;6.75;3.45;;;;;;;;;;5033973;28;20029;-68
2023/07/17 04:10:31;;;;;;;10.68;3.17;;;;;;;;;;5033831;28;20033;-68
2023/07/17 04:12:56;;;;;;;12.57;3.28;;;;;;;;;;5023824;28;20029;-68
2023/07/17 04:15:21;;;;;;;6.82;2.92;;;;;;;;;;5016049;28;20029;-68
2023/07/17 04:17:47;;;;;;;9.18;3.05;;;;;;;;;;5033783;28;20479;-68
2023/07/17 04:20:12;;;;;;;13.75;3.40;;;;;;;;;;5034070;28;20021;-68
2023/07/17 04:22:37;;;;;;;10.63;2.58;;;;;;;;;;5034166;28;20053;-68
2023/07/17 04:25:04;;;;;;;8.40;2.92;;;;;;;;;;5033606;28;20109;-68
2023/07/17 04:27:30;;;;;;;9.65;3.40;;;;;;;;;;5033498;28;20037;-68
2023/07/17 04:29:56;;;;;;;11.07;3.20;;;;;;;;;;5033539;28;20026;-68
2023/07/17 04:32:21;;;;;;;5.43;2.65;;;;;;;;;;5034155;28;20091;-68
2023/07/17 04:34:46;;;;;;;12.93;3.15;;;;;;;;;;5033331;28;20051;-68
2023/07/17 04:37:12;;;;;;;10.23;3.63;;;;;;;;;;5033543;28;20068;-69
2023/07/17 04:39:37;;;;;;;10.02;2.65;;;;;;;;;;5032992;28;20113;-68
2023/07/17 04:42:02;;;;;;;10.77;2.83;;;;;;;;;;5033729;28;20029;-68
2023/07/17 04:44:28;;;;;;;8.30;3.30;;;;;;;;;;5033580;28;20398;-68
2023/07/17 04:46:53;;;;;;;6.38;2.47;;;;;;;;;;5033470;28;20367;-68
2023/07/17 04:49:18;;;;;;;7.10;3.00;;;;;;;;;;5033676;28;20041;-68
2023/07/17 04:51:43;;;;;;;8.57;2.53;;;;;;;;;;5033551;28;20017;-68
2023/07/17 04:54:09;;;;;;;11.05;3.00;;;;;;;;;;5032652;28;20497;-68
2023/07/17 04:56:34;;;;;;;10.90;2.90;;;;;;;;;;5021078;28;20032;-68
2023/07/17 04:58:59;;;;;;;11.82;3.35;;;;;;;;;;5024256;28;20037;-68
2023/07/17 05:01:25;;;;;;;9.38;4.00;;;;;;;;;;5033093;28;20474;-68
2023/07/17 05:03:50;;;;;;;12.23;2.55;;;;;;;;;;5008056;28;20060;-68
2023/07/17 05:06:15;;;;;;;9.25;3.67;;;;;;;;;;5030549;28;20064;-68
2023/07/17 05:08:40;;;;;;;9.88;2.88;;;;;;;;;;5033287;28;20033;-68
2023/07/17 05:11:06;;;;;;;9.88;2.85;;;;;;;;;;5032936;28;20072;-68
2023/07/17 05:13:31;;;;;;;7.95;3.45;;;;;;;;;;5033158;28;20035;-68
2023/07/17 05:15:57;;;;;;;7.93;3.25;;;;;;;;;;5031980;28;20497;-69
2023/07/17 05:18:22;;;;;;;10.38;2.80;;;;;;;;;;5033179;28;20478;-68
2023/07/17 05:20:49;;;;;;;11.27;4.40;;;;;;;;;;5032935;28;20088;-68
2023/07/17 05:23:15;;;;;;;11.88;3.67;;;;;;;;;;5032954;28;20026;-68
2023/07/17 05:25:52;;;;;;;20.80;3.85;;;;;;;;;;5033304;28;20140;-68
2023/07/17 05:28:17;;;;;;;12.80;3.05;;;;;;;;;;5031124;28;20025;-68
2023/07/17 05:30:42;;;;;;;12.35;3.15;;;;;;;;;;5033055;28;20025;-68
2023/07/17 05:33:08;;;;;;;10.35;3.55;;;;;;;;;;5032588;28;20048;-68
2023/07/17 05:35:33;;;;;;;13.70;3.33;;;;;;;;;;5032991;28;20071;-68
2023/07/17 05:37:58;;;;;;;14.07;3.83;;;;;;;;;;5032653;28;20092;-69
2023/07/17 05:40:24;;;;;;;17.73;4.18;;;;;;;;;;5020643;28;20525;-68
2023/07/17 05:42:49;;;;;;;10.75;3.53;;;;;;;;;;5013152;28;20076;-68
2023/07/17 05:45:15;;;;;;;13.05;3.60;;;;;;;;;;5007602;28;20026;-68
2023/07/17 05:47:40;;;;;;;13.55;2.80;;;;;;;;;;4995130;28;20032;-68
2023/07/17 05:50:07;;;;;;;13.88;3.78;;;;;;;;;;5011024;28;20069;-68
2023/07/17 05:52:32;;;;;;;10.82;3.78;;;;;;;;;;5011680;28;20109;-68
2023/07/17 05:54:57;;;;;;;15.70;3.15;;;;;;;;;;5011203;28;20122;-69
2023/07/17 05:57:22;;;;;;;13.25;3.20;;;;;;;;;;5004459;28;20538;-69
2023/07/17 05:59:48;;;;;;;11.27;4.05;;;;;;;;;;5012947;28;20030;-69
2023/07/17 06:02:14;;;;;;;15.68;4.53;;;;;;;;;;5005363;28;20026;-69
2023/07/17 06:04:40;;;;;;;12.25;3.47;;;;;;;;;;5008700;28;20072;-69
2023/07/17 06:07:05;;;;;;;16.05;3.38;;;;;;;;;;5012095;28;20025;-69
2023/07/17 06:09:30;;;;;;;16.83;3.83;;;;;;;;;;5007479;28;20025;-68
2023/07/17 06:11:56;;;;;;;11.63;3.63;;;;;;;;;;5003321;28;20037;-68
2023/07/17 06:14:21;;;;;;;9.90;3.90;;;;;;;;;;4993051;28;20018;-68
2023/07/17 06:16:46;;;;;;;10.25;3.35;;;;;;;;;;4994809;28;20080;-68
2023/07/17 06:19:12;;;;;;;9.75;3.47;;;;;;;;;;4993866;28;20049;-68
2023/07/17 06:21:37;;;;;;;12.48;4.45;;;;;;;;;;5016863;28;20100;-69
2023/07/17 06:24:03;;;;;;;9.90;3.80;;;;;;;;;;5031131;28;20032;-68
2023/07/17 06:26:29;;;;;;;17.10;4.13;;;;;;;;;;5029998;28;20376;-69
2023/07/17 06:28:54;;;;;;;10.43;3.90;;;;;;;;;;5034117;28;20028;-69
2023/07/17 06:31:19;;;;;;;17.33;4.20;;;;;;;;;;5036084;28;20450;-69
2023/07/17 06:33:45;;;;;;;14.70;4.78;;;;;;;;;;5036147;28;20017;-69
2023/07/17 06:36:10;;;;;;;9.95;3.72;;;;;;;;;;5035401;28;20025;-69
2023/07/17 06:38:35;;;;;;;16.50;4.03;;;;;;;;;;5035904;28;20095;-69
2023/07/17 06:41:01;;;;;;;12.10;3.67;;;;;;;;;;5035923;28;20032;-69
2023/07/17 06:43:26;;;;;;;9.60;3.63;;;;;;;;;;5033837;28;20029;-69
2023/07/17 06:45:51;;;;;;;11.25;3.58;;;;;;;;;;5035929;28;20053;-69
2023/07/17 06:48:17;;;;;;;9.85;4.15;;;;;;;;;;5035831;28;20513;-69
2023/07/17 06:50:42;;;;;;;10.55;3.55;;;;;;;;;;5032889;28;20017;-68
2023/07/17 06:53:07;;;;;;;17.63;4.25;;;;;;;;;;5012862;28;20021;-68
2023/07/17 06:55:32;;;;;;;10.40;4.22;;;;;;;;;;5015731;28;20021;-69
2023/07/17 06:57:58;;;;;;;6.80;2.90;;;;;;;;;;5000466;28;20190;-68
2023/07/17 07:00:23;;;;;;;11.73;3.00;;;;;;;;;;4996142;28;20391;-69
2023/07/17 07:02:48;;;;;;;12.65;3.45;;;;;;;;;;4996207;28;20121;-69
2023/07/17 07:05:14;;;;;;;8.77;3.42;;;;;;;;;;4996052;28;20030;-69
2023/07/17 07:07:39;;;;;;;10.63;3.13;;;;;;;;;;4997429;28;20049;-68
2023/07/17 07:10:05;;;;;;;13.52;4.22;;;;;;;;;;5015847;28;20079;-68
2023/07/17 07:12:31;;;;;;;12.13;3.58;;;;;;;;;;5015118;28;20037;-68
2023/07/17 07:14:56;;;;;;;11.88;4.20;;;;;;;;;;5015459;28;20026;-69
2023/07/17 07:17:21;;;;;;;11.40;3.40;;;;;;;;;;5021892;28;20478;-69
2023/07/17 07:19:47;;;;;;;14.65;4.03;;;;;;;;;;5034041;28;20027;-69
2023/07/17 07:22:12;;;;;;;9.38;3.30;;;;;;;;;;5033731;28;20021;-69
2023/07/17 07:24:41;;;;;;;11.10;3.50;;;;;;;;;;5035123;28;20033;-69
2023/07/17 07:27:06;;;;;;;9.65;3.22;;;;;;;;;;5033292;28;20025;-69
2023/07/17 07:29:32;;;;;;;7.55;3.47;;;;;;;;;;5034729;28;20044;-68
2023/07/17 07:31:57;;;;;;;6.32;2.63;;;;;;;;;;5035063;28;20390;-68
2023/07/17 07:34:22;;;;;;;3.55;1.85;;;;;;;;;;5033080;28;20032;-69
2023/07/17 07:36:47;;;;;;;5.45;1.88;;;;;;;;;;5035032;28;20027;-69
2023/07/17 07:39:13;;;;;;;6.57;2.05;;;;;;;;;;5034526;28;20391;-68
2023/07/17 07:41:38;;;;;;;14.25;2.08;;;;;;;;;;5034914;28;20025;-69
2023/07/17 07:44:04;;;;;;;7.82;2.40;;;;;;;;;;5032808;28;20054;-70
2023/07/17 07:46:29;;;;;;;6.25;2.70;;;;;;;;;;5033658;28;20029;-70
2023/07/17 07:48:54;;;;;;;5.55;2.63;;;;;;;;;;5033918;28;20475;-70
2023/07/17 07:51:20;;;;;;;8.13;3.55;;;;;;;;;;5034426;28;20029;-69
2023/07/17 07:53:45;;;;;;;7.68;2.55;;;;;;;;;;5034562;28;20048;-69
2023/07/17 07:56:10;;;;;;;6.35;2.53;;;;;;;;;;5033253;28;20427;-70
2023/07/17 07:58:35;;;;;;;13.75;3.63;;;;;;;;;;5034369;28;20024;-70
2023/07/17 08:01:01;;;;;;;12.30;2.88;;;;;;;;;;5034508;28;20021;-70
2023/07/17 08:03:27;;;;;;;8.88;2.47;;;;;;;;;;5032362;28;20505;-70
2023/07/17 08:05:52;;;;;;;6.75;1.85;;;;;;;;;;5047073;23;20244;-72
2023/07/17 08:08:17;;;;;;;5.10;2.17;;;;;;;;;;5049284;28;20033;-71
2023/07/17 08:10:43;;;;;;;6.65;2.13;;;;;;;;;;5033863;28;20022;-70
2023/07/17 08:13:08;;;;;;;5.75;2.00;;;;;;;;;;5053924;28;20043;-70
2023/07/17 08:15:33;;;;;;;10.27;2.97;;;;;;;;;;5053082;28;20021;-71
2023/07/17 08:17:59;;;;;;;11.80;3.05;;;;;;;;;;5054126;28;20028;-71
2023/07/17 08:20:24;;;;;;;9.63;2.35;;;;;;;;;;5053848;28;20100;-70
2023/07/17 08:22:54;;;;;;;6.05;1.95;;;;;;;;;;5054004;28;20032;-71
2023/07/17 08:25:20;;;;;;;7.70;2.42;;;;;;;;;;5053546;28;20033;-71
2023/07/17 08:27:46;;;;;;;10.15;2.63;;;;;;;;;;5053053;28;20027;-72
2023/07/17 08:30:11;;;;;;;6.32;2.38;;;;;;;;;;5053922;28;20033;-72
2023/07/17 08:32:36;;;;;;;9.93;2.20;;;;;;;;;;5053716;28;20114;-73
2023/07/17 08:35:03;;;;;;;11.35;2.22;;;;;;;;;;5053426;28;20021;-72
2023/07/17 08:37:28;;;;;;;6.03;2.45;;;;;;;;;;5053736;28;20498;-73
2023/07/17 08:39:53;;;;;;;8.55;2.10;;;;;;;;;;5053681;28;20056;-73
2023/07/17 08:42:18;;;;;;;13.77;3.63;;;;;;;;;;5015798;28;20025;-71
2023/07/17 08:44:44;;;;;;;8.15;2.95;;;;;;;;;;5013518;28;20026;-72
2023/07/17 08:47:10;;;;;;;15.88;3.20;;;;;;;;;;5020418;28;20428;-72
2023/07/17 08:49:37;;;;;;;10.68;2.50;;;;;;;;;;5031277;28;20026;-72
2023/07/17 08:52:04;;;;;;;10.15;3.47;;;;;;;;;;5028674;28;20022;-72
2023/07/17 08:54:29;;;;;;;10.43;4.05;;;;;;;;;;5014242;28;20045;-73
2023/07/17 08:56:57;;;;;;;9.10;3.10;;;;;;;;;;5014499;28;20060;-73
2023/07/17 08:59:22;;;;;;;9.80;3.15;;;;;;;;;;5012814;28;20391;-73
2023/07/17 09:01:51;;;;;;;10.27;2.70;;;;;;;;;;5012819;28;20076;-72
2023/07/17 09:04:16;;;;;;;12.57;3.22;;;;;;;;;;5025619;28;20548;-73
2023/07/17 09:06:42;;;;;;;7.47;2.95;;;;;;;;;;5032925;28;20033;-72
2023/07/17 09:09:09;;;;;;;10.07;3.10;;;;;;;;;;5040819;28;20397;-72
2023/07/17 09:11:34;;;;;;;9.93;2.95;;;;;;;;;;5049339;28;20478;-73
2023/07/17 09:14:00;;;;;;;11.80;3.33;;;;;;;;;;5015839;28;20025;-73
2023/07/17 09:16:25;;;;;;;7.97;2.83;;;;;;;;;;5032195;28;20025;-72
2023/07/17 09:18:52;;;;;;;7.10;3.15;;;;;;;;;;5034961;28;20375;-72
2023/07/17 09:21:20;;;;;;;10.43;2.75;;;;;;;;;;5038658;28;20044;-72
2023/07/17 09:23:49;;;;;;;8.25;2.38;;;;;;;;;;5051792;28;20476;-72
2023/07/17 09:26:20;;;;;;;19.10;4.05;;;;;;;;;;5051198;28;20025;-72
2023/07/17 09:28:46;;;;;;;;;;;;;;;;;;5053392;28;20075;-72
2023/07/17 09:31:11;;;;;;;8.45;2.63;;;;;;;;;;5053187;28;20377;-72
2023/07/17 09:33:37;;;;;;;5.15;2.10;;;;;;;;;;5052571;28;20040;-73
2023/07/17 09:36:02;;;;;;;8.93;2.22;;;;;;;;;;5052311;28;20029;-72
2023/07/17 09:38:28;;;;;;;12.23;2.63;;;;;;;;;;5051491;28;20032;-73
2023/07/17 09:40:53;;;;;;;6.32;1.92;;;;;;;;;;5051679;28;20033;-73
2023/07/17 09:43:31;;;;;;;3.15;1.58;;;;;;;;;;5051278;28;20025;-73
2023/07/17 09:46:00;;;;;;;5.30;1.80;;;;;;;;;;5052229;28;20017;-72
2023/07/17 09:48:30;;;;;;;4.30;1.65;;;;;;;;;;5052710;28;20475;-73
2023/07/17 09:50:57;;;;;;;4.00;1.83;;;;;;;;;;5034482;28;20029;-72
2023/07/17 09:53:22;;;;;;;5.25;2.00;;;;;;;;;;5051722;28;20024;-73
2023/07/17 09:55:49;;;;;;;5.05;1.95;;;;;;;;;;5050541;28;20094;-73
2023/07/17 09:58:15;;;;;;;5.80;1.90;;;;;;;;;;5034703;28;20490;-72
2023/07/17 10:00:41;;;;;;;8.77;2.35;;;;;;;;;;5051741;28;20114;-73
2023/07/17 10:03:10;;;;;;;7.53;2.30;;;;;;;;;;5055380;28;20028;-72
2023/07/17 10:05:36;;;;;;;13.02;2.42;;;;;;;;;;5054955;28;20086;-73
2023/07/17 10:08:14;;;;;;;5.97;2.10;;;;;;;;;;5054887;28;20031;-73
2023/07/17 10:10:40;;;;;;;5.72;1.95;;;;;;;;;;5055227;28;20037;-72
2023/07/17 10:13:07;;;;;;;4.70;1.90;;;;;;;;;;5056335;28;20366;-72
2023/07/17 10:15:32;;;;;;;9.68;2.60;;;;;;;;;;5054896;28;20021;-73
2023/07/17 10:17:58;;;;;;;5.70;2.13;;;;;;;;;;5054531;28;20051;-73
2023/07/17 10:20:23;;;;;;;7.13;2.60;;;;;;;;;;5055042;28;20082;-75
2023/07/17 10:22:49;;;;;;;4.65;2.13;;;;;;;;;;5055195;28;20025;-74
2023/07/17 10:25:17;;;;;;;5.82;2.03;;;;;;;;;;5054615;28;20021;-74
2023/07/17 10:27:52;;;;;;;11.00;2.63;;;;;;;;;;5055988;28;20029;-74
2023/07/17 10:30:29;;;;;;;6.43;2.10;;;;;;;;;;5054222;28;20532;-74
2023/07/17 10:33:07;;;;;;;;;;;;;;;;;;5055470;28;20029;-74
2023/07/17 10:35:47;;;;;;;7.03;2.42;;;;;;;;;;5038155;28;19916;-73
2023/07/17 10:38:14;;;;;;;7.18;2.72;;;;;;;;;;5044419;28;20024;-74
2023/07/17 10:40:39;;;;;;;7.00;2.22;;;;;;;;;;5034198;28;20035;-74
2023/07/17 10:43:16;;;;;;;7.30;2.33;;;;;;;;;;5034724;28;20021;-73
2023/07/17 10:45:41;;;;;;;7.45;3.83;;;;;;;;;;5034448;28;20029;-75
2023/07/17 10:48:07;;;;;;;7.22;2.40;;;;;;;;;;5048481;28;20031;-75
2023/07/17 10:50:32;;;;;;;6.45;1.70;;;;;;;;;;5055704;28;20025;-75
2023/07/17 10:53:05;;;;;;;10.88;2.90;;;;;;;;;;5054875;28;20100;-74
2023/07/17 10:55:34;;;;;;;5.30;1.90;;;;;;;;;;5054408;28;20028;-75
2023/07/17 10:58:00;;;;;;;10.75;2.72;;;;;;;;;;5054495;28;20025;-75
2023/07/17 11:00:25;;;;;;;7.90;2.55;;;;;;;;;;5053807;28;20067;-75
2023/07/17 11:02:51;;;;;;;6.47;2.70;;;;;;;;;;5013781;28;20449;-75
2023/07/17 11:05:17;;;;;;;6.13;2.92;;;;;;;;;;5015227;28;20085;-74
2023/07/17 11:07:42;;;;;;;7.78;2.67;;;;;;;;;;5017789;28;20402;-74
2023/07/17 11:10:12;;;;;;;6.63;2.67;;;;;;;;;;5015522;28;20076;-75
2023/07/17 11:12:41;;;;;;;7.47;3.33;;;;;;;;;;5022820;28;20072;-74
2023/07/17 11:15:16;;;;;;;6.70;2.10;;;;;;;;;;5013679;28;20030;-75
2023/07/17 11:17:42;;;;;;;8.98;3.00;;;;;;;;;;5014190;28;20025;-74
2023/07/17 11:20:07;;;;;;;8.55;2.72;;;;;;;;;;5015751;28;20026;-75
2023/07/17 11:22:33;;;;;;;13.60;3.72;;;;;;;;;;5016270;28;20030;-75
2023/07/17 11:24:59;;;;;;;10.23;3.80;;;;;;;;;;5053963;28;20033;-74
2023/07/17 11:27:24;;;;;;;8.38;2.70;;;;;;;;;;5054734;28;20024;-74
2023/07/17 11:29:50;;;;;;;9.45;2.55;;;;;;;;;;5053398;28;20033;-74
2023/07/17 11:32:20;;;;;;;6.22;2.20;;;;;;;;;;5053683;28;20031;-74
2023/07/17 11:34:51;;;;;;;5.97;2.60;;;;;;;;;;5053775;28;20067;-74
2023/07/17 11:37:34;;;;;;;8.27;2.47;;;;;;;;;;5053808;28;20456;-75
2023/07/17 11:40:06;;;;;;;8.80;2.75;;;;;;;;;;5041397;28;20140;-74
2023/07/17 11:42:57;;;;;;;9.10;2.67;;;;;;;;;;5033263;28;20029;-74
2023/07/17 11:45:27;;;;;;;7.30;2.33;;;;;;;;;;5033081;28;20506;-73
2023/07/17 11:47:53;;;;;;;9.85;2.50;;;;;;;;;;5033335;28;20029;-74
2023/07/17 11:50:26;;;;;;;5.38;2.67;;;;;;;;;;5039667;28;20067;-74
2023/07/17 11:53:05;;;;;;;10.60;2.20;;;;;;;;;;5053600;28;20052;-74
2023/07/17 11:55:38;;;;;;;9.77;2.58;;;;;;;;;;5054185;28;20017;-74
2023/07/17 11:58:20;;;;;;;5.97;2.30;;;;;;;;;;5036584;28;20025;-74
2023/07/17 12:00:48;;;;;;;7.80;2.30;;;;;;;;;;5052880;28;20025;-74
2023/07/17 12:03:14;;;;;;;7.53;2.15;;;;;;;;;;5052268;28;20104;-74
2023/07/17 12:05:39;;;;;;;11.63;2.75;;;;;;;;;;5053937;28;20120;-73
2023/07/17 12:08:05;;;;;;;9.75;2.75;;;;;;;;;;5052963;28;20078;-74
2023/07/17 12:10:30;;;;;;;5.88;2.58;;;;;;;;;;5054477;28;20033;-74
2023/07/17 12:12:56;;;;;;;5.18;2.72;;;;;;;;;;5054015;28;20049;-73
2023/07/17 12:15:25;;;;;;;8.13;2.47;;;;;;;;;;5051990;28;20021;-74
2023/07/17 12:17:50;;;;;;;9.00;2.80;;;;;;;;;;5054073;28;20082;-74
2023/07/17 12:20:16;;;;;;;21.05;3.63;;;;;;;;;;5054045;28;20021;-74
2023/07/17 12:22:41;;;;;;;5.68;2.42;;;;;;;;;;5054033;28;20025;-73
2023/07/17 12:25:07;;;;;;;8.00;2.22;;;;;;;;;;5051569;28;20028;-75
2023/07/17 12:27:33;;;;;;;10.70;2.53;;;;;;;;;;5035089;28;20458;-74
2023/07/17 12:29:58;;;;;;;7.95;2.53;;;;;;;;;;5053734;28;20029;-74
2023/07/17 12:32:23;;;;;;;13.48;2.90;;;;;;;;;;5052549;28;20056;-74
2023/07/17 12:34:49;;;;;;;10.93;2.67;;;;;;;;;;5053738;28;20016;-74
2023/07/17 12:37:14;;;;;;;8.90;3.35;;;;;;;;;;5035475;28;20036;-75
2023/07/17 12:39:39;;;;;;;6.82;2.70;;;;;;;;;;5053115;28;20032;-74
2023/07/17 12:42:05;;;;;;;6.20;2.30;;;;;;;;;;5052301;28;20072;-75
2023/07/17 12:44:30;;;;;;;6.03;2.35;;;;;;;;;;5052190;28;20021;-74
2023/07/17 12:46:55;;;;;;;9.68;2.38;;;;;;;;;;5035174;28;20029;-74
2023/07/17 12:49:20;;;;;;;11.25;2.30;;;;;;;;;;5030078;28;20029;-74
2023/07/17 12:51:46;;;;;;;5.93;3.00;;;;;;;;;;5052237;28;20436;-74
2023/07/17 12:54:11;;;;;;;5.60;2.35;;;;;;;;;;5053358;28;20048;-74
2023/07/17 12:56:36;;;;;;;5.05;2.25;;;;;;;;;;5053561;28;20064;-74
2023/07/17 12:59:02;;;;;;;7.38;2.03;;;;;;;;;;5051995;28;20100;-74
2023/07/17 13:01:27;;;;;;;11.88;2.30;;;;;;;;;;5051990;28;20424;-75
2023/07/17 13:03:52;;;;;;;7.57;2.40;;;;;;;;;;5034665;28;20056;-75
2023/07/17 13:06:20;;;;;;;6.40;2.17;;;;;;;;;;5052879;28;20465;-74
2023/07/17 13:08:45;;;;;;;8.68;2.50;;;;;;;;;;5034757;28;20104;-74
2023/07/17 13:11:10;;;;;;;7.60;2.40;;;;;;;;;;5030793;28;20129;-75
2023/07/17 13:13:35;;;;;;;5.45;2.80;;;;;;;;;;5046514;28;20028;-75
2023/07/17 13:16:01;;;;;;;8.75;2.38;;;;;;;;;;5032880;28;20018;-75
2023/07/17 13:18:27;;;;;;;13.40;2.53;;;;;;;;;;5021369;28;20100;-74
2023/07/17 13:20:52;;;;;;;7.05;2.28;;;;;;;;;;4995829;28;20042;-74
2023/07/17 13:23:18;;;;;;;10.23;2.28;;;;;;;;;;5026793;28;20037;-74
2023/07/17 13:25:44;;;;;;;12.10;2.45;;;;;;;;;;5032923;28;20112;-75
2023/07/17 13:28:10;;;;;;;9.77;2.53;;;;;;;;;;5034187;28;20033;-73
2023/07/17 13:30:35;;;;;;;13.35;2.90;;;;;;;;;;5031912;28;20021;-76
2023/07/17 13:33:00;;;;;;;6.68;2.22;;;;;;;;;;5050881;28;20060;-74
2023/07/17 13:35:26;;;;;;;6.43;2.22;;;;;;;;;;5029776;28;20029;-75
2023/07/17 13:37:51;;;;;;;8.70;2.65;;;;;;;;;;5013086;28;20022;-75
2023/07/17 13:40:16;;;;;;;8.82;2.40;;;;;;;;;;5019210;28;20411;-74
2023/07/17 13:42:42;;;;;;;7.47;2.15;;;;;;;;;;5033034;28;20138;-74
2023/07/17 13:45:08;;;;;;;7.70;2.70;;;;;;;;;;5032574;28;20068;-74
2023/07/17 13:47:33;;;;;;;8.45;2.50;;;;;;;;;;5031160;28;20025;-74
2023/07/17 13:49:58;;;;;;;5.13;2.25;;;;;;;;;;5030435;28;20052;-74
2023/07/17 13:52:23;;;;;;;8.23;2.72;;;;;;;;;;5051581;28;20086;-75
2023/07/17 13:54:49;;;;;;;8.02;2.45;;;;;;;;;;5052534;28;20048;-75
2023/07/17 13:57:14;;;;;;;6.35;2.42;;;;;;;;;;5028108;28;20119;-74
2023/07/17 13:59:42;;;;;;;7.07;2.40;;;;;;;;;;5013378;28;20040;-74
2023/07/17 14:02:07;;;;;;;12.88;3.20;;;;;;;;;;5028863;28;20470;-74
2023/07/17 14:04:32;;;;;;;8.00;2.50;;;;;;;;;;5031211;28;20026;-74
2023/07/17 14:06:58;;;;;;;7.20;4.07;;;;;;;;;;5098483;22;20424;-69
2023/07/17 14:09:23;;;;;;;8.60;3.13;;;;;;;;;;5072303;28;20024;-69
2023/07/17 14:11:48;;;;;;;12.00;3.10;;;;;;;;;;5069477;28;20036;-68
2023/07/17 14:14:14;;;;;;;11.45;2.45;;;;;;;;;;5052593;28;20025;-69
2023/07/17 14:16:39;;;;;;;10.13;2.75;;;;;;;;;;5057268;28;20021;-69
2023/07/17 14:19:04;;;;;;;10.57;2.45;;;;;;;;;;5112668;28;20031;-69
2023/07/17 14:21:30;;;;;;;4.07;2.10;;;;;;;;;;5112374;28;20020;-69
2023/07/17 14:23:55;;;;;;;5.15;2.35;;;;;;;;;;5112676;28;20019;-69
2023/07/17 14:26:20;;;;;;;6.47;2.60;;;;;;;;;;5112984;28;20035;-69
2023/07/17 14:28:45;;;;;;;7.45;2.85;;;;;;;;;;5112615;28;20023;-69
2023/07/17 14:31:11;;;;;;;8.73;2.58;;;;;;;;;;5113027;28;20044;-69